sensor_id;sensor_type;location;lat;lon;timestamp;P1;durP1;ratioP1;P2;durP2;ratioP2
37529;SDS011;23374;52.758;6.872;2022-12-18T00:00:30;63.97;;;20.47;;
37529;SDS011;23374;52.758;6.872;2022-12-18T00:02:50;46.23;;;15.20;;
37529;SDS011;23374;52.758;6.872;2022-12-18T00:05:13;44.37;;;15.77;;
37529;SDS011;23374;52.758;6.872;2022-12-18T00:07:33;57.43;;;18.13;;
37529;SDS011;23374;52.758;6.872;2022-12-18T00:09:55;57.63;;;17.80;;
37529;SDS011;23374;52.758;6.872;2022-12-18T00:12:16;50.63;;;16.63;;
37529;SDS011;23374;52.758;6.872;2022-12-18T00:14:37;45.33;;;17.23;;
37529;SDS011;23374;52.758;6.872;2022-12-18T00:16:57;52.13;;;19.53;;
37529;SDS011;23374;52.758;6.872;2022-12-18T00:19:20;45.27;;;16.43;;
37529;SDS011;23374;52.758;6.872;2022-12-18T00:21:41;45.00;;;16.47;;
37529;SDS011;23374;52.758;6.872;2022-12-18T00:24:03;44.17;;;17.73;;
37529;SDS011;23374;52.758;6.872;2022-12-18T00:26:26;54.07;;;18.90;;
37529;SDS011;23374;52.758;6.872;2022-12-18T00:28:51;49.30;;;18.03;;
37529;SDS011;23374;52.758;6.872;2022-12-18T00:31:18;45.20;;;17.23;;
37529;SDS011;23374;52.758;6.872;2022-12-18T00:33:41;47.87;;;16.93;;
37529;SDS011;23374;52.758;6.872;2022-12-18T00:36:07;50.97;;;18.37;;
37529;SDS011;23374;52.758;6.872;2022-12-18T00:38:37;39.97;;;16.20;;
37529;SDS011;23374;52.758;6.872;2022-12-18T00:40:58;43.27;;;16.70;;
37529;SDS011;23374;52.758;6.872;2022-12-18T00:43:18;44.13;;;16.90;;
37529;SDS011;23374;52.758;6.872;2022-12-18T00:45:39;47.43;;;15.33;;
37529;SDS011;23374;52.758;6.872;2022-12-18T00:48:00;47.13;;;15.50;;
37529;SDS011;23374;52.758;6.872;2022-12-18T00:50:21;39.40;;;15.57;;
37529;SDS011;23374;52.758;6.872;2022-12-18T00:52:43;38.35;;;16.27;;
37529;SDS011;23374;52.758;6.872;2022-12-18T00:55:05;44.38;;;15.05;;
37529;SDS011;23374;52.758;6.872;2022-12-18T00:57:25;46.97;;;16.90;;
37529;SDS011;23374;52.758;6.872;2022-12-18T00:59:46;41.93;;;15.07;;
37529;SDS011;23374;52.758;6.872;2022-12-18T01:02:08;40.87;;;14.83;;
37529;SDS011;23374;52.758;6.872;2022-12-18T01:04:31;36.55;;;14.10;;
37529;SDS011;23374;52.758;6.872;2022-12-18T01:06:51;41.53;;;15.03;;
37529;SDS011;23374;52.758;6.872;2022-12-18T01:09:12;46.15;;;15.55;;
37529;SDS011;23374;52.758;6.872;2022-12-18T01:11:33;44.25;;;16.50;;
37529;SDS011;23374;52.758;6.872;2022-12-18T01:13:53;41.33;;;16.70;;
37529;SDS011;23374;52.758;6.872;2022-12-18T01:16:15;45.17;;;16.20;;
37529;SDS011;23374;52.758;6.872;2022-12-18T01:18:36;33.33;;;13.07;;
37529;SDS011;23374;52.758;6.872;2022-12-18T01:20:56;47.92;;;16.95;;
37529;SDS011;23374;52.758;6.872;2022-12-18T01:23:17;38.53;;;15.20;;
37529;SDS011;23374;52.758;6.872;2022-12-18T01:25:38;40.28;;;17.90;;
37529;SDS011;23374;52.758;6.872;2022-12-18T01:27:58;44.33;;;16.33;;
37529;SDS011;23374;52.758;6.872;2022-12-18T01:30:18;56.20;;;15.75;;
37529;SDS011;23374;52.758;6.872;2022-12-18T01:32:38;58.33;;;19.30;;
37529;SDS011;23374;52.758;6.872;2022-12-18T01:34:59;51.37;;;17.25;;
37529;SDS011;23374;52.758;6.872;2022-12-18T01:37:19;58.93;;;19.13;;
37529;SDS011;23374;52.758;6.872;2022-12-18T01:39:39;40.40;;;14.63;;
37529;SDS011;23374;52.758;6.872;2022-12-18T01:42:02;35.70;;;12.53;;
37529;SDS011;23374;52.758;6.872;2022-12-18T01:49:13;36.37;;;13.20;;
37529;SDS011;23374;52.758;6.872;2022-12-18T01:51:33;35.17;;;15.00;;
37529;SDS011;23374;52.758;6.872;2022-12-18T01:53:54;44.38;;;15.27;;
37529;SDS011;23374;52.758;6.872;2022-12-18T01:56:19;40.63;;;12.88;;
37529;SDS011;23374;52.758;6.872;2022-12-18T01:59:02;47.13;;;13.95;;
37529;SDS011;23374;52.758;6.872;2022-12-18T02:01:25;34.05;;;13.43;;
37529;SDS011;23374;52.758;6.872;2022-12-18T02:03:46;35.50;;;13.95;;
37529;SDS011;23374;52.758;6.872;2022-12-18T02:06:18;27.27;;;12.90;;
37529;SDS011;23374;52.758;6.872;2022-12-18T02:09:20;28.17;;;11.93;;
37529;SDS011;23374;52.758;6.872;2022-12-18T02:12:10;28.30;;;12.15;;
37529;SDS011;23374;52.758;6.872;2022-12-18T02:15:09;35.13;;;12.55;;
37529;SDS011;23374;52.758;6.872;2022-12-18T02:18:01;42.95;;;11.68;;
37529;SDS011;23374;52.758;6.872;2022-12-18T02:20:35;29.60;;;11.20;;
37529;SDS011;23374;52.758;6.872;2022-12-18T02:28:57;28.15;;;11.05;;
37529;SDS011;23374;52.758;6.872;2022-12-18T02:31:28;30.83;;;10.83;;
37529;SDS011;23374;52.758;6.872;2022-12-18T02:33:56;31.70;;;11.63;;
37529;SDS011;23374;52.758;6.872;2022-12-18T02:36:21;32.75;;;13.30;;
37529;SDS011;23374;52.758;6.872;2022-12-18T02:38:43;28.93;;;10.70;;
37529;SDS011;23374;52.758;6.872;2022-12-18T02:41:05;29.48;;;11.90;;
37529;SDS011;23374;52.758;6.872;2022-12-18T02:43:26;32.38;;;12.05;;
37529;SDS011;23374;52.758;6.872;2022-12-18T02:45:54;31.37;;;12.57;;
37529;SDS011;23374;52.758;6.872;2022-12-18T02:48:18;29.40;;;11.55;;
37529;SDS011;23374;52.758;6.872;2022-12-18T02:50:48;31.98;;;11.55;;
37529;SDS011;23374;52.758;6.872;2022-12-18T02:53:38;30.20;;;11.85;;
37529;SDS011;23374;52.758;6.872;2022-12-18T02:56:46;26.60;;;10.48;;
37529;SDS011;23374;52.758;6.872;2022-12-18T02:59:17;26.08;;;11.00;;
37529;SDS011;23374;52.758;6.872;2022-12-18T03:01:57;23.42;;;9.10;;
37529;SDS011;23374;52.758;6.872;2022-12-18T03:04:27;30.55;;;12.32;;
37529;SDS011;23374;52.758;6.872;2022-12-18T03:07:38;20.37;;;9.30;;
37529;SDS011;23374;52.758;6.872;2022-12-18T03:10:08;27.37;;;10.70;;
37529;SDS011;23374;52.758;6.872;2022-12-18T03:12:35;27.40;;;10.17;;
37529;SDS011;23374;52.758;6.872;2022-12-18T03:15:13;26.10;;;9.60;;
37529;SDS011;23374;52.758;6.872;2022-12-18T03:17:41;30.02;;;11.00;;
37529;SDS011;23374;52.758;6.872;2022-12-18T03:20:10;28.65;;;10.57;;
37529;SDS011;23374;52.758;6.872;2022-12-18T03:22:34;31.62;;;11.38;;
37529;SDS011;23374;52.758;6.872;2022-12-18T03:24:57;23.42;;;10.63;;
37529;SDS011;23374;52.758;6.872;2022-12-18T03:27:19;26.37;;;10.77;;
37529;SDS011;23374;52.758;6.872;2022-12-18T03:29:48;27.83;;;10.80;;
37529;SDS011;23374;52.758;6.872;2022-12-18T03:32:52;24.35;;;9.45;;
37529;SDS011;23374;52.758;6.872;2022-12-18T03:36:48;20.45;;;8.85;;
37529;SDS011;23374;52.758;6.872;2022-12-18T03:39:09;25.40;;;9.18;;
37529;SDS011;23374;52.758;6.872;2022-12-18T03:41:36;26.62;;;10.65;;
37529;SDS011;23374;52.758;6.872;2022-12-18T03:44:33;26.55;;;12.23;;
37529;SDS011;23374;52.758;6.872;2022-12-18T03:47:28;27.90;;;10.00;;
37529;SDS011;23374;52.758;6.872;2022-12-18T03:50:18;20.35;;;11.05;;
37529;SDS011;23374;52.758;6.872;2022-12-18T03:53:41;32.72;;;11.80;;
37529;SDS011;23374;52.758;6.872;2022-12-18T03:56:39;17.92;;;7.62;;
37529;SDS011;23374;52.758;6.872;2022-12-18T03:59:04;25.95;;;10.93;;
37529;SDS011;23374;52.758;6.872;2022-12-18T04:01:29;29.23;;;11.43;;
37529;SDS011;23374;52.758;6.872;2022-12-18T04:03:59;21.77;;;10.18;;
37529;SDS011;23374;52.758;6.872;2022-12-18T04:06:21;20.23;;;9.90;;
37529;SDS011;23374;52.758;6.872;2022-12-18T04:08:42;21.12;;;10.50;;
37529;SDS011;23374;52.758;6.872;2022-12-18T04:11:03;26.30;;;10.32;;
37529;SDS011;23374;52.758;6.872;2022-12-18T04:13:36;17.98;;;9.65;;
37529;SDS011;23374;52.758;6.872;2022-12-18T04:15:58;20.88;;;9.38;;
37529;SDS011;23374;52.758;6.872;2022-12-18T04:18:19;19.17;;;8.63;;
37529;SDS011;23374;52.758;6.872;2022-12-18T04:20:39;24.05;;;9.25;;
37529;SDS011;23374;52.758;6.872;2022-12-18T04:22:59;21.25;;;8.55;;
37529;SDS011;23374;52.758;6.872;2022-12-18T04:25:19;26.80;;;10.23;;
37529;SDS011;23374;52.758;6.872;2022-12-18T04:27:40;28.08;;;10.93;;
37529;SDS011;23374;52.758;6.872;2022-12-18T04:30:00;22.17;;;8.65;;
37529;SDS011;23374;52.758;6.872;2022-12-18T04:32:20;21.25;;;9.23;;
37529;SDS011;23374;52.758;6.872;2022-12-18T04:34:41;18.65;;;9.05;;
37529;SDS011;23374;52.758;6.872;2022-12-18T04:37:01;16.23;;;7.18;;
37529;SDS011;23374;52.758;6.872;2022-12-18T04:39:21;22.08;;;8.68;;
37529;SDS011;23374;52.758;6.872;2022-12-18T04:41:41;21.95;;;9.57;;
37529;SDS011;23374;52.758;6.872;2022-12-18T04:44:01;22.75;;;9.43;;
37529;SDS011;23374;52.758;6.872;2022-12-18T04:46:22;16.77;;;7.85;;
37529;SDS011;23374;52.758;6.872;2022-12-18T04:48:45;22.75;;;9.38;;
37529;SDS011;23374;52.758;6.872;2022-12-18T04:51:06;19.48;;;8.63;;
37529;SDS011;23374;52.758;6.872;2022-12-18T04:53:27;22.87;;;9.05;;
37529;SDS011;23374;52.758;6.872;2022-12-18T04:55:50;19.02;;;9.43;;
37529;SDS011;23374;52.758;6.872;2022-12-18T04:58:21;19.48;;;8.25;;
37529;SDS011;23374;52.758;6.872;2022-12-18T05:00:41;21.12;;;8.63;;
37529;SDS011;23374;52.758;6.872;2022-12-18T05:03:01;17.60;;;6.75;;
37529;SDS011;23374;52.758;6.872;2022-12-18T05:05:23;18.55;;;7.20;;
37529;SDS011;23374;52.758;6.872;2022-12-18T05:07:43;18.90;;;8.43;;
37529;SDS011;23374;52.758;6.872;2022-12-18T05:10:04;16.00;;;7.93;;
37529;SDS011;23374;52.758;6.872;2022-12-18T05:12:25;18.33;;;7.80;;
37529;SDS011;23374;52.758;6.872;2022-12-18T05:14:45;25.08;;;8.65;;
37529;SDS011;23374;52.758;6.872;2022-12-18T05:17:05;17.80;;;7.37;;
37529;SDS011;23374;52.758;6.872;2022-12-18T05:19:26;26.48;;;9.63;;
37529;SDS011;23374;52.758;6.872;2022-12-18T05:21:46;20.55;;;8.82;;
37529;SDS011;23374;52.758;6.872;2022-12-18T05:24:06;16.35;;;7.95;;
37529;SDS011;23374;52.758;6.872;2022-12-18T05:26:27;21.45;;;9.45;;
37529;SDS011;23374;52.758;6.872;2022-12-18T05:28:48;15.82;;;8.25;;
37529;SDS011;23374;52.758;6.872;2022-12-18T05:31:09;18.20;;;7.97;;
37529;SDS011;23374;52.758;6.872;2022-12-18T05:33:31;15.38;;;7.70;;
37529;SDS011;23374;52.758;6.872;2022-12-18T05:35:55;21.52;;;8.60;;
37529;SDS011;23374;52.758;6.872;2022-12-18T05:38:18;23.90;;;8.38;;
37529;SDS011;23374;52.758;6.872;2022-12-18T05:40:41;17.73;;;7.85;;
37529;SDS011;23374;52.758;6.872;2022-12-18T05:43:03;21.48;;;9.77;;
37529;SDS011;23374;52.758;6.872;2022-12-18T05:45:23;21.00;;;8.38;;
37529;SDS011;23374;52.758;6.872;2022-12-18T05:47:43;15.77;;;8.18;;
37529;SDS011;23374;52.758;6.872;2022-12-18T05:50:04;19.65;;;8.05;;
37529;SDS011;23374;52.758;6.872;2022-12-18T05:52:26;17.05;;;7.28;;
37529;SDS011;23374;52.758;6.872;2022-12-18T05:54:47;20.02;;;8.45;;
37529;SDS011;23374;52.758;6.872;2022-12-18T05:57:08;20.92;;;9.15;;
37529;SDS011;23374;52.758;6.872;2022-12-18T05:59:28;17.35;;;8.18;;
37529;SDS011;23374;52.758;6.872;2022-12-18T06:01:49;16.85;;;8.57;;
37529;SDS011;23374;52.758;6.872;2022-12-18T06:04:09;23.77;;;9.63;;
37529;SDS011;23374;52.758;6.872;2022-12-18T06:06:30;20.98;;;8.63;;
37529;SDS011;23374;52.758;6.872;2022-12-18T06:08:50;15.43;;;7.82;;
37529;SDS011;23374;52.758;6.872;2022-12-18T06:11:11;20.55;;;7.37;;
37529;SDS011;23374;52.758;6.872;2022-12-18T06:13:33;19.20;;;7.72;;
37529;SDS011;23374;52.758;6.872;2022-12-18T06:15:53;16.55;;;7.82;;
37529;SDS011;23374;52.758;6.872;2022-12-18T06:18:13;19.75;;;8.63;;
37529;SDS011;23374;52.758;6.872;2022-12-18T06:20:33;19.62;;;6.97;;
37529;SDS011;23374;52.758;6.872;2022-12-18T06:22:56;18.35;;;8.05;;
37529;SDS011;23374;52.758;6.872;2022-12-18T06:25:17;14.43;;;7.12;;
37529;SDS011;23374;52.758;6.872;2022-12-18T06:27:38;15.40;;;8.00;;
37529;SDS011;23374;52.758;6.872;2022-12-18T06:29:58;19.62;;;8.07;;
37529;SDS011;23374;52.758;6.872;2022-12-18T06:32:19;12.20;;;7.32;;
37529;SDS011;23374;52.758;6.872;2022-12-18T06:34:39;20.48;;;7.30;;
37529;SDS011;23374;52.758;6.872;2022-12-18T06:37:00;18.42;;;7.82;;
37529;SDS011;23374;52.758;6.872;2022-12-18T06:39:20;25.23;;;7.80;;
37529;SDS011;23374;52.758;6.872;2022-12-18T06:41:41;15.40;;;6.53;;
37529;SDS011;23374;52.758;6.872;2022-12-18T06:44:01;11.35;;;7.45;;
37529;SDS011;23374;52.758;6.872;2022-12-18T06:46:21;18.50;;;8.57;;
37529;SDS011;23374;52.758;6.872;2022-12-18T06:48:42;13.98;;;6.22;;
37529;SDS011;23374;52.758;6.872;2022-12-18T06:51:02;11.77;;;5.35;;
37529;SDS011;23374;52.758;6.872;2022-12-18T06:53:23;13.15;;;6.40;;
37529;SDS011;23374;52.758;6.872;2022-12-18T06:55:44;16.27;;;7.50;;
37529;SDS011;23374;52.758;6.872;2022-12-18T06:58:04;12.63;;;6.90;;
37529;SDS011;23374;52.758;6.872;2022-12-18T07:00:25;15.65;;;6.12;;
37529;SDS011;23374;52.758;6.872;2022-12-18T07:02:45;15.35;;;5.97;;
37529;SDS011;23374;52.758;6.872;2022-12-18T07:05:06;16.65;;;7.25;;
37529;SDS011;23374;52.758;6.872;2022-12-18T07:07:26;14.77;;;7.35;;
37529;SDS011;23374;52.758;6.872;2022-12-18T07:09:47;13.02;;;6.15;;
37529;SDS011;23374;52.758;6.872;2022-12-18T07:12:09;12.13;;;6.15;;
37529;SDS011;23374;52.758;6.872;2022-12-18T07:14:29;15.35;;;6.55;;
37529;SDS011;23374;52.758;6.872;2022-12-18T07:16:49;17.42;;;7.43;;
37529;SDS011;23374;52.758;6.872;2022-12-18T07:19:09;16.55;;;7.00;;
37529;SDS011;23374;52.758;6.872;2022-12-18T07:21:30;15.02;;;6.20;;
37529;SDS011;23374;52.758;6.872;2022-12-18T07:23:50;14.65;;;6.75;;
37529;SDS011;23374;52.758;6.872;2022-12-18T07:26:12;14.45;;;6.72;;
37529;SDS011;23374;52.758;6.872;2022-12-18T07:28:34;13.80;;;5.93;;
37529;SDS011;23374;52.758;6.872;2022-12-18T07:30:55;9.32;;;4.40;;
37529;SDS011;23374;52.758;6.872;2022-12-18T07:33:16;10.70;;;4.72;;
37529;SDS011;23374;52.758;6.872;2022-12-18T07:35:36;14.45;;;6.65;;
37529;SDS011;23374;52.758;6.872;2022-12-18T07:37:56;15.25;;;6.05;;
37529;SDS011;23374;52.758;6.872;2022-12-18T07:40:17;12.48;;;5.25;;
37529;SDS011;23374;52.758;6.872;2022-12-18T07:42:37;11.88;;;5.37;;
37529;SDS011;23374;52.758;6.872;2022-12-18T07:44:59;11.23;;;5.32;;
37529;SDS011;23374;52.758;6.872;2022-12-18T07:47:20;14.05;;;6.62;;
37529;SDS011;23374;52.758;6.872;2022-12-18T07:49:40;15.90;;;6.70;;
37529;SDS011;23374;52.758;6.872;2022-12-18T07:52:00;13.75;;;5.87;;
37529;SDS011;23374;52.758;6.872;2022-12-18T07:54:22;12.35;;;6.43;;
37529;SDS011;23374;52.758;6.872;2022-12-18T07:56:43;17.50;;;6.10;;
37529;SDS011;23374;52.758;6.872;2022-12-18T07:59:03;14.75;;;5.95;;
37529;SDS011;23374;52.758;6.872;2022-12-18T08:01:24;14.80;;;5.00;;
37529;SDS011;23374;52.758;6.872;2022-12-18T08:03:44;13.43;;;6.75;;
37529;SDS011;23374;52.758;6.872;2022-12-18T08:06:06;11.75;;;5.57;;
37529;SDS011;23374;52.758;6.872;2022-12-18T08:08:29;15.10;;;7.20;;
37529;SDS011;23374;52.758;6.872;2022-12-18T08:10:50;14.95;;;6.65;;
37529;SDS011;23374;52.758;6.872;2022-12-18T08:13:10;17.02;;;6.10;;
37529;SDS011;23374;52.758;6.872;2022-12-18T08:15:30;11.45;;;6.07;;
37529;SDS011;23374;52.758;6.872;2022-12-18T08:17:50;15.20;;;5.70;;
37529;SDS011;23374;52.758;6.872;2022-12-18T08:20:11;11.30;;;5.72;;
37529;SDS011;23374;52.758;6.872;2022-12-18T08:22:34;13.85;;;5.68;;
37529;SDS011;23374;52.758;6.872;2022-12-18T08:24:55;11.32;;;5.37;;
37529;SDS011;23374;52.758;6.872;2022-12-18T08:27:15;10.85;;;5.43;;
37529;SDS011;23374;52.758;6.872;2022-12-18T08:29:36;5.30;;;3.20;;
37529;SDS011;23374;52.758;6.872;2022-12-18T08:31:57;10.38;;;5.47;;
37529;SDS011;23374;52.758;6.872;2022-12-18T08:34:18;8.88;;;5.43;;
37529;SDS011;23374;52.758;6.872;2022-12-18T08:36:38;8.07;;;4.03;;
37529;SDS011;23374;52.758;6.872;2022-12-18T08:38:58;6.37;;;4.18;;
37529;SDS011;23374;52.758;6.872;2022-12-18T08:41:19;6.07;;;3.78;;
37529;SDS011;23374;52.758;6.872;2022-12-18T08:43:40;7.18;;;4.28;;
37529;SDS011;23374;52.758;6.872;2022-12-18T08:46:21;5.72;;;3.58;;
37529;SDS011;23374;52.758;6.872;2022-12-18T08:48:43;7.20;;;4.25;;
37529;SDS011;23374;52.758;6.872;2022-12-18T08:51:04;4.85;;;2.53;;
37529;SDS011;23374;52.758;6.872;2022-12-18T08:53:25;6.75;;;3.15;;
37529;SDS011;23374;52.758;6.872;2022-12-18T08:55:46;11.82;;;4.00;;
37529;SDS011;23374;52.758;6.872;2022-12-18T08:58:07;11.55;;;4.97;;
37529;SDS011;23374;52.758;6.872;2022-12-18T09:00:27;8.52;;;3.72;;
37529;SDS011;23374;52.758;6.872;2022-12-18T09:02:48;6.95;;;4.00;;
37529;SDS011;23374;52.758;6.872;2022-12-18T09:05:08;7.97;;;4.47;;
37529;SDS011;23374;52.758;6.872;2022-12-18T09:07:28;5.95;;;3.72;;
37529;SDS011;23374;52.758;6.872;2022-12-18T09:09:49;8.45;;;3.85;;
37529;SDS011;23374;52.758;6.872;2022-12-18T09:12:09;4.70;;;2.72;;
37529;SDS011;23374;52.758;6.872;2022-12-18T09:14:29;7.20;;;4.10;;
37529;SDS011;23374;52.758;6.872;2022-12-18T09:16:50;7.10;;;4.25;;
37529;SDS011;23374;52.758;6.872;2022-12-18T09:19:11;8.53;;;3.57;;
37529;SDS011;23374;52.758;6.872;2022-12-18T09:21:33;5.10;;;2.75;;
37529;SDS011;23374;52.758;6.872;2022-12-18T09:23:55;2.42;;;2.03;;
37529;SDS011;23374;52.758;6.872;2022-12-18T09:26:15;4.47;;;2.15;;
37529;SDS011;23374;52.758;6.872;2022-12-18T09:28:36;3.45;;;2.50;;
37529;SDS011;23374;52.758;6.872;2022-12-18T09:30:57;6.72;;;3.30;;
37529;SDS011;23374;52.758;6.872;2022-12-18T09:33:18;1.80;;;1.03;;
37529;SDS011;23374;52.758;6.872;2022-12-18T09:35:39;6.30;;;3.70;;
37529;SDS011;23374;52.758;6.872;2022-12-18T09:38:00;6.95;;;3.12;;
37529;SDS011;23374;52.758;6.872;2022-12-18T09:40:25;5.97;;;3.30;;
37529;SDS011;23374;52.758;6.872;2022-12-18T09:42:55;4.60;;;2.93;;
37529;SDS011;23374;52.758;6.872;2022-12-18T09:45:20;5.97;;;3.25;;
37529;SDS011;23374;52.758;6.872;2022-12-18T09:47:42;2.10;;;1.20;;
37529;SDS011;23374;52.758;6.872;2022-12-18T09:50:13;3.73;;;2.33;;
37529;SDS011;23374;52.758;6.872;2022-12-18T09:52:46;0.43;;;0.43;;
37529;SDS011;23374;52.758;6.872;2022-12-18T09:55:54;7.53;;;2.77;;
37529;SDS011;23374;52.758;6.872;2022-12-18T10:00:16;1.93;;;1.53;;
37529;SDS011;23374;52.758;6.872;2022-12-18T10:02:40;6.13;;;2.63;;
37529;SDS011;23374;52.758;6.872;2022-12-18T10:05:09;5.70;;;2.73;;
37529;SDS011;23374;52.758;6.872;2022-12-18T10:08:00;6.53;;;3.40;;
37529;SDS011;23374;52.758;6.872;2022-12-18T10:10:41;6.37;;;3.20;;
37529;SDS011;23374;52.758;6.872;2022-12-18T10:16:08;4.83;;;2.37;;
37529;SDS011;23374;52.758;6.872;2022-12-18T10:26:03;12.07;;;3.60;;
37529;SDS011;23374;52.758;6.872;2022-12-18T10:28:30;7.50;;;2.43;;
37529;SDS011;23374;52.758;6.872;2022-12-18T10:30:51;5.60;;;3.87;;
37529;SDS011;23374;52.758;6.872;2022-12-18T10:33:13;5.37;;;2.05;;
37529;SDS011;23374;52.758;6.872;2022-12-18T10:35:37;7.53;;;3.77;;
37529;SDS011;23374;52.758;6.872;2022-12-18T10:38:07;10.30;;;1.80;;
37529;SDS011;23374;52.758;6.872;2022-12-18T10:42:10;5.23;;;2.13;;
37529;SDS011;23374;52.758;6.872;2022-12-18T10:44:36;1.07;;;0.73;;
37529;SDS011;23374;52.758;6.872;2022-12-18T10:47:03;5.30;;;2.63;;
37529;SDS011;23374;52.758;6.872;2022-12-18T10:49:32;4.43;;;2.47;;
37529;SDS011;23374;52.758;6.872;2022-12-18T10:52:11;4.20;;;2.80;;
37529;SDS011;23374;52.758;6.872;2022-12-18T10:54:36;3.73;;;2.20;;
37529;SDS011;23374;52.758;6.872;2022-12-18T10:57:20;4.03;;;2.17;;
37529;SDS011;23374;52.758;6.872;2022-12-18T10:59:59;12.47;;;4.50;;
37529;SDS011;23374;52.758;6.872;2022-12-18T11:02:39;3.23;;;2.10;;
37529;SDS011;23374;52.758;6.872;2022-12-18T11:05:00;8.57;;;2.70;;
37529;SDS011;23374;52.758;6.872;2022-12-18T11:07:20;6.73;;;3.43;;
37529;SDS011;23374;52.758;6.872;2022-12-18T11:09:40;7.30;;;3.53;;
37529;SDS011;23374;52.758;6.872;2022-12-18T11:12:22;7.30;;;3.77;;
37529;SDS011;23374;52.758;6.872;2022-12-18T11:14:51;9.87;;;3.40;;
37529;SDS011;23374;52.758;6.872;2022-12-18T11:17:37;3.53;;;2.23;;
37529;SDS011;23374;52.758;6.872;2022-12-18T11:20:00;7.63;;;3.30;;
37529;SDS011;23374;52.758;6.872;2022-12-18T11:22:26;4.70;;;2.73;;
37529;SDS011;23374;52.758;6.872;2022-12-18T11:25:05;7.10;;;3.73;;
37529;SDS011;23374;52.758;6.872;2022-12-18T11:28:00;5.77;;;3.43;;
37529;SDS011;23374;52.758;6.872;2022-12-18T11:30:33;6.47;;;2.60;;
37529;SDS011;23374;52.758;6.872;2022-12-18T11:33:37;7.37;;;4.03;;
37529;SDS011;23374;52.758;6.872;2022-12-18T11:36:02;6.30;;;3.53;;
37529;SDS011;23374;52.758;6.872;2022-12-18T11:38:41;8.60;;;3.23;;
37529;SDS011;23374;52.758;6.872;2022-12-18T11:43:47;6.03;;;2.97;;
37529;SDS011;23374;52.758;6.872;2022-12-18T11:46:39;1.93;;;1.73;;
37529;SDS011;23374;52.758;6.872;2022-12-18T11:49:12;5.37;;;2.90;;
37529;SDS011;23374;52.758;6.872;2022-12-18T11:53:11;0.63;;;0.50;;
37529;SDS011;23374;52.758;6.872;2022-12-18T11:55:39;8.77;;;3.73;;
37529;SDS011;23374;52.758;6.872;2022-12-18T12:02:02;2.83;;;2.13;;
37529;SDS011;23374;52.758;6.872;2022-12-18T12:06:16;5.53;;;2.63;;
37529;SDS011;23374;52.758;6.872;2022-12-18T12:09:42;5.10;;;2.83;;
37529;SDS011;23374;52.758;6.872;2022-12-18T12:12:52;4.83;;;2.40;;
37529;SDS011;23374;52.758;6.872;2022-12-18T12:16:17;4.70;;;3.40;;
37529;SDS011;23374;52.758;6.872;2022-12-18T12:19:25;8.03;;;4.13;;
37529;SDS011;23374;52.758;6.872;2022-12-18T12:30:18;7.13;;;2.87;;
37529;SDS011;23374;52.758;6.872;2022-12-18T12:41:04;1.00;;;0.67;;
37529;SDS011;23374;52.758;6.872;2022-12-18T12:45:36;4.40;;;1.67;;
37529;SDS011;23374;52.758;6.872;2022-12-18T12:48:55;9.93;;;3.20;;
37529;SDS011;23374;52.758;6.872;2022-12-18T12:51:32;7.00;;;3.30;;
37529;SDS011;23374;52.758;6.872;2022-12-18T12:53:58;3.13;;;1.70;;
37529;SDS011;23374;52.758;6.872;2022-12-18T12:56:21;8.03;;;4.03;;
37529;SDS011;23374;52.758;6.872;2022-12-18T13:00:18;4.07;;;1.67;;
37529;SDS011;23374;52.758;6.872;2022-12-18T13:03:29;3.87;;;2.57;;
37529;SDS011;23374;52.758;6.872;2022-12-18T13:07:41;5.20;;;3.10;;
37529;SDS011;23374;52.758;6.872;2022-12-18T13:10:53;5.47;;;2.23;;
37529;SDS011;23374;52.758;6.872;2022-12-18T13:15:27;2.77;;;1.43;;
37529;SDS011;23374;52.758;6.872;2022-12-18T13:18:37;8.20;;;2.03;;
37529;SDS011;23374;52.758;6.872;2022-12-18T13:21:04;3.87;;;2.70;;
37529;SDS011;23374;52.758;6.872;2022-12-18T13:23:37;9.37;;;3.70;;
37529;SDS011;23374;52.758;6.872;2022-12-18T13:26:58;4.97;;;3.17;;
37529;SDS011;23374;52.758;6.872;2022-12-18T13:29:41;7.17;;;3.93;;
37529;SDS011;23374;52.758;6.872;2022-12-18T13:32:33;6.70;;;3.00;;
37529;SDS011;23374;52.758;6.872;2022-12-18T13:36:14;8.10;;;3.93;;
37529;SDS011;23374;52.758;6.872;2022-12-18T13:39:08;5.90;;;2.57;;
37529;SDS011;23374;52.758;6.872;2022-12-18T13:41:54;3.67;;;1.67;;
37529;SDS011;23374;52.758;6.872;2022-12-18T13:45:44;3.10;;;1.60;;
37529;SDS011;23374;52.758;6.872;2022-12-18T13:48:23;6.57;;;3.20;;
37529;SDS011;23374;52.758;6.872;2022-12-18T13:50:57;7.70;;;3.87;;
37529;SDS011;23374;52.758;6.872;2022-12-18T13:53:29;5.90;;;2.60;;
37529;SDS011;23374;52.758;6.872;2022-12-18T13:55:56;5.80;;;2.83;;
37529;SDS011;23374;52.758;6.872;2022-12-18T13:58:17;6.07;;;3.00;;
37529;SDS011;23374;52.758;6.872;2022-12-18T14:00:42;8.50;;;4.03;;
37529;SDS011;23374;52.758;6.872;2022-12-18T14:03:16;1.90;;;1.23;;
37529;SDS011;23374;52.758;6.872;2022-12-18T14:05:39;6.87;;;3.27;;
37529;SDS011;23374;52.758;6.872;2022-12-18T14:08:11;7.33;;;3.57;;
37529;SDS011;23374;52.758;6.872;2022-12-18T14:10:34;6.67;;;4.03;;
37529;SDS011;23374;52.758;6.872;2022-12-18T14:13:04;7.10;;;3.50;;
37529;SDS011;23374;52.758;6.872;2022-12-18T14:15:33;7.90;;;3.53;;
37529;SDS011;23374;52.758;6.872;2022-12-18T14:21:28;5.17;;;3.30;;
37529;SDS011;23374;52.758;6.872;2022-12-18T14:24:06;6.83;;;3.40;;
37529;SDS011;23374;52.758;6.872;2022-12-18T14:26:37;8.60;;;4.37;;
37529;SDS011;23374;52.758;6.872;2022-12-18T14:29:00;6.37;;;3.87;;
37529;SDS011;23374;52.758;6.872;2022-12-18T14:31:37;5.70;;;3.00;;
37529;SDS011;23374;52.758;6.872;2022-12-18T14:33:58;5.70;;;3.70;;
37529;SDS011;23374;52.758;6.872;2022-12-18T14:36:24;6.03;;;2.57;;
37529;SDS011;23374;52.758;6.872;2022-12-18T14:38:52;9.10;;;4.60;;
37529;SDS011;23374;52.758;6.872;2022-12-18T14:41:16;7.13;;;4.27;;
37529;SDS011;23374;52.758;6.872;2022-12-18T14:43:40;3.93;;;2.70;;
37529;SDS011;23374;52.758;6.872;2022-12-18T14:46:06;7.23;;;2.60;;
37529;SDS011;23374;52.758;6.872;2022-12-18T14:48:55;6.50;;;2.93;;
37529;SDS011;23374;52.758;6.872;2022-12-18T14:51:23;5.87;;;2.90;;
37529;SDS011;23374;52.758;6.872;2022-12-18T14:53:52;5.40;;;2.00;;
37529;SDS011;23374;52.758;6.872;2022-12-18T14:56:22;9.27;;;4.27;;
37529;SDS011;23374;52.758;6.872;2022-12-18T14:59:02;6.37;;;3.97;;
37529;SDS011;23374;52.758;6.872;2022-12-18T15:01:33;5.03;;;2.77;;
37529;SDS011;23374;52.758;6.872;2022-12-18T15:05:30;9.97;;;4.93;;
37529;SDS011;23374;52.758;6.872;2022-12-18T15:07:52;6.20;;;3.73;;
37529;SDS011;23374;52.758;6.872;2022-12-18T15:10:31;8.47;;;5.20;;
37529;SDS011;23374;52.758;6.872;2022-12-18T15:13:20;4.47;;;2.50;;
37529;SDS011;23374;52.758;6.872;2022-12-18T15:15:44;1.33;;;1.17;;
37529;SDS011;23374;52.758;6.872;2022-12-18T15:18:15;9.43;;;4.60;;
37529;SDS011;23374;52.758;6.872;2022-12-18T15:21:08;8.67;;;3.80;;
37529;SDS011;23374;52.758;6.872;2022-12-18T15:23:51;5.17;;;1.90;;
37529;SDS011;23374;52.758;6.872;2022-12-18T15:26:14;9.03;;;4.63;;
37529;SDS011;23374;52.758;6.872;2022-12-18T15:28:38;6.57;;;3.40;;
37529;SDS011;23374;52.758;6.872;2022-12-18T15:31:31;7.27;;;4.47;;
37529;SDS011;23374;52.758;6.872;2022-12-18T15:34:19;7.63;;;4.43;;
37529;SDS011;23374;52.758;6.872;2022-12-18T15:36:41;8.27;;;4.07;;
37529;SDS011;23374;52.758;6.872;2022-12-18T15:39:02;5.07;;;2.93;;
37529;SDS011;23374;52.758;6.872;2022-12-18T15:41:24;7.63;;;4.13;;
37529;SDS011;23374;52.758;6.872;2022-12-18T15:43:46;8.43;;;4.17;;
37529;SDS011;23374;52.758;6.872;2022-12-18T15:46:18;6.97;;;3.47;;